Hauptseite
METAR-TAF:

METAR-TAF

Flughäfen :

Bohrplattform

Heimdal, Norwegen

Breite: 59-34-12N, Länge: 2-13-48E, Höhe: 10 m

Beobachtung

Neuester Wetterbericht von vor 42 Minuten, um 03:20 UTC
Wind 29 kt aus Süd/Südost
Temperatur 10°C
Luftfeuchtigkeit 93%
Luftdruck 1020 hPa
Sichtweite: 8000 m

METAR: ENHM 160320Z AUTO 16029KT 8000NDV FEW009/// SCT062/// BKN082/// 10/09 Q1020 W10/S5

Zeit: 05:02 (04:02 UTC)

Prognose

Neuester Wetterbericht von vor 13 Stunden und 54 Minuten, um 14:08 UTC
Gültige Prognose vom 15 um 14 UTC bis 15 um 18 UTC
Wind 30 kt aus Süd/Südost, Böen bis zu 40 kt
Sichtweite 10 km oder mehr
Aufgelockert bewölkt in der Höhe von 1000 ft
Zeitweise
vom 15 um 14 UTC bis 15 um 18 UTC
Durchbrochene Bewölkung in der Höhe von 800 ft

TAF: ENHM 151408Z 1514/1518 16030G40KT 9999 SCT010 TEMPO 1514/1518 BKN008

Wetterbeobachtungen und Prognosen von mehr als 4000 Flughäfen (METAR und TAF Bericht).

Die verfügbaren Stationen werden durch gelbe und rote Markierungen auf der Karte dargestellt.

Führen Sie die Maus auf sie, um den Namen der Station zu sehen.

Darauf klicken, um die Beobachtung von Wetterbeobachtungen und Prognosen zu sehen.

Um die Karte zu ändern : klicken Sie auf den grünen Tasten mit einem schwarzen Kreuz Zum Vergrößern, auf den grünen Button mit einem Gedankenstrich zu verkleinern, oder auf die grünen Pfeile für benachbarte Karten.


METAR-TAF: